Ana Sayfa
METAR-TAF:

METAR-TAF

Havaalanları :

Fort Madison Municipal Airport

Fort Madison, Iowa, Amerika Birleşik Devletleri

Enlem: 40-40N, Boylam: 091-20W, yükseklik: 221 m

Güncel hava durumu gözlemi

Rapor saat 04:55 UTC de 38 dakika önce yapıldı.
Rüzgar güney/güneybatıdan 6 kt
Sıcaklık 23°C
Nem 69%
Basınç 1012 hPa
Görüş mesafesi: 16.1 km
5500 ft yükseklikte parçalı bulutlu
7000 ft yükseklikte parçalı bulutlu
8000 ft yükseklikte parçalı bulutlu

METAR: KFSW 190455Z AUTO 20006KT 10SM SCT055 SCT070 SCT080 23/17 A2988 RMK AO2 403030173

Saat: 00:33 (05:33 UTC)


TAF: eksik

4.000'den fazla havaalanı için hava durumu gözlemleri ve tahminleri (METAR ve TAF raporları).

Kullanılabilir istasyonlar harita üzerinde sarı ve kırmızı noktalarla gösterilir.

İstasyonun adını görmek için fareyi noktanın üzerinde gezdirin.

Sonrasında hava gözlem ve tahminlerini görmek için tıklayın.

Haritayı değiştirmek için: yaklaştırmak için siyah artı işaretli yeşil düğmeye ve uzaklaştırmak için de eksi işaretli düğmeye hızla tıklayın; bitişik haritalar için yeşil okları kullanın.


METAR-TAF: